Terminal Aerodrome Forecast
Issued by NWS

Home | Current Version | Previous Version | Text Only | Print | Product List | Glossary On
Versions: 1 2 3 4 5 6 7 8 9 10 11 12 13 14 15 16 17 18 19 20 21
000
FTUS43 KBIS 071732
TAFJMS
TAF
KJMS 071732Z 0718/0818 17010KT P6SM SCT100
     FM080800 19005KT P6SM -SHRA BKN040 OVC100
     FM081400 22007KT P6SM SCT050 BKN100=

USA.gov is the U.S. government's official web portal to all federal, state and local government web resources and services.